Time;durP1;ratioP1;P1;durP2;ratioP2;P2;SDS_P1;SDS_P2;PMS_P1;PMS_P2;Temp;Humidity;BMP_temperature;BMP_pressure;BME280_temperature;BME280_humidity;BME280_pressure;Samples;Min_cycle;Max_cycle;Signal;HPM_P1;HPM_P2
2024/02/02 00:02:46;;;;;;;30.65;5.60;;;6.40;83.50;;;;;;9177085;19;20010;-71
2024/02/02 00:05:52;;;;;;;33.80;5.03;;;6.40;83.40;;;;;;9176716;19;20017;-70
2024/02/02 00:09:00;;;;;;;31.40;5.18;;;6.50;83.40;;;;;;9176359;19;20010;-71
2024/02/02 00:12:10;;;;;;;29.75;7.35;;;6.50;83.30;;;;;;9177416;19;20015;-71
2024/02/02 00:15:19;;;;;;;38.90;5.82;;;6.50;83.30;;;;;;9180000;19;20504;-71
2024/02/02 00:18:27;;;;;;;27.10;6.32;;;6.50;83.30;;;;;;9179074;19;20026;-69
2024/02/02 00:21:35;;;;;;;46.28;8.00;;;6.50;83.30;;;;;;9176114;19;20049;-70
2024/02/02 00:24:40;;;;;;;30.17;7.82;;;6.50;83.30;;;;;;9177492;19;20434;-71
2024/02/02 00:27:48;;;;;;;32.83;6.97;;;6.50;83.30;;;;;;9175478;19;20023;-70
2024/02/02 00:30:53;;;;;;;29.10;6.88;;;6.60;83.40;;;;;;9179571;19;20018;-71
2024/02/02 00:34:04;;;;;;;38.55;7.50;;;6.50;83.40;;;;;;9179538;19;20015;-71
2024/02/02 00:37:10;;;;;;;56.92;7.63;;;6.50;84.00;;;;;;9179379;19;20452;-71
2024/02/02 00:40:17;;;;;;;36.63;6.13;;;6.50;83.40;;;;;;9179275;19;20018;-71
2024/02/02 00:43:25;;;;;;;28.80;6.35;;;6.50;83.40;;;;;;9176410;19;20031;-70
2024/02/02 00:46:33;;;;;;;33.92;7.15;;;6.50;83.50;;;;;;9175373;19;20022;-71
2024/02/02 00:49:41;;;;;;;42.08;7.80;;;6.50;83.40;;;;;;9178496;19;20496;-71
2024/02/02 00:52:49;;;;;;;32.85;6.70;;;6.50;83.50;;;;;;9176232;19;20085;-71
2024/02/02 00:55:54;;;;;;;38.40;7.95;;;6.50;83.60;;;;;;9178437;19;20025;-71
2024/02/02 00:59:02;;;;;;;28.52;7.68;;;6.50;83.40;;;;;;9176968;19;20026;-72
2024/02/02 01:02:08;;;;;;;45.60;6.93;;;6.50;83.60;;;;;;9177984;19;20022;-71
2024/02/02 01:05:18;;;;;;;35.65;8.07;;;6.50;83.60;;;;;;9177898;19;20015;-71
2024/02/02 01:08:24;;;;;;;34.38;8.95;;;6.50;83.70;;;;;;9176793;19;20025;-71
2024/02/02 01:11:31;;;;;;;34.47;7.38;;;6.50;83.60;;;;;;9175957;19;20029;-71
2024/02/02 01:14:37;;;;;;;34.03;6.45;;;6.50;83.60;;;;;;9176116;19;20018;-72
2024/02/02 01:17:45;;;;;;;24.17;6.57;;;6.50;83.80;;;;;;9178287;19;20027;-71
2024/02/02 01:20:54;;;;;;;39.17;7.05;;;6.50;83.80;;;;;;9178980;19;20021;-71
2024/02/02 01:24:02;;;;;;;38.88;8.32;;;6.50;83.60;;;;;;9171330;19;20021;-71
2024/02/02 01:27:08;;;;;;;43.50;7.47;;;6.50;83.80;;;;;;9176088;19;20030;-71
2024/02/02 01:30:16;;;;;;;30.45;7.00;;;6.50;83.70;;;;;;9177515;19;20025;-74
2024/02/02 01:33:22;;;;;;;27.10;6.75;;;6.70;84.10;;;;;;9177136;19;20026;-70
2024/02/02 01:36:33;;;;;;;35.65;6.43;;;6.50;83.80;;;;;;9174920;19;20033;-71
2024/02/02 01:39:39;;;;;;;36.53;6.90;;;6.70;83.90;;;;;;9176965;19;20106;-72
2024/02/02 01:42:47;;;;;;;33.72;6.63;;;6.60;84.40;;;;;;9176208;19;20014;-69
2024/02/02 01:45:53;;;;;;;23.95;6.00;;;6.60;83.90;;;;;;9176474;19;20019;-72
2024/02/02 01:49:01;;;;;;;24.45;5.97;;;6.60;83.80;;;;;;9174186;19;20025;-71
2024/02/02 01:52:10;;;;;;;27.65;5.95;;;6.60;84.00;;;;;;9175481;19;20019;-71
2024/02/02 01:55:20;;;;;;;25.83;5.70;;;6.50;84.00;;;;;;9173002;19;20468;-71
2024/02/02 01:58:26;;;;;;;29.73;6.75;;;6.50;83.80;;;;;;9175895;19;20017;-72
2024/02/02 02:01:34;;;;;;;21.25;5.50;;;6.50;83.70;;;;;;9171103;19;20018;-71
2024/02/02 02:04:39;;;;;;;27.48;6.22;;;6.60;83.80;;;;;;9173853;19;20014;-70
2024/02/02 02:07:50;;;;;;;30.98;5.72;;;6.50;83.70;;;;;;9171447;19;20030;-72
2024/02/02 02:10:56;;;;;;;28.70;5.75;;;6.60;83.90;;;;;;9173426;19;20014;-71
2024/02/02 02:14:04;;;;;;;22.48;5.40;;;6.60;83.90;;;;;;9174411;19;20011;-71
2024/02/02 02:17:10;;;;;;;31.60;6.22;;;6.50;84.00;;;;;;9174407;19;20745;-70
2024/02/02 02:20:25;;;;;;;27.83;5.65;;;6.60;84.00;;;;;;9174288;19;20015;-71
2024/02/02 02:23:38;;;;;;;29.98;5.88;;;6.60;84.00;;;;;;9169555;19;20584;-71
2024/02/02 02:26:46;;;;;;;30.55;6.10;;;6.60;83.90;;;;;;9174535;19;20022;-71
2024/02/02 02:29:52;;;;;;;22.58;5.03;;;6.50;84.00;;;;;;9173412;19;20022;-72
2024/02/02 02:33:00;;;;;;;26.88;5.50;;;6.60;84.00;;;;;;9172066;19;20052;-70
2024/02/02 02:36:07;;;;;;;18.23;6.15;;;6.50;84.00;;;;;;9172167;19;20010;-70
2024/02/02 02:39:17;;;;;;;26.45;4.78;;;6.50;84.00;;;;;;9173669;19;20381;-72
2024/02/02 02:42:23;;;;;;;33.55;6.35;;;6.60;84.10;;;;;;9173200;19;20714;-71
2024/02/02 02:45:31;;;;;;;29.25;6.95;;;6.60;84.00;;;;;;9173152;19;20014;-70
2024/02/02 02:48:37;;;;;;;28.17;5.18;;;6.60;84.10;;;;;;9169629;19;20014;-71
2024/02/02 02:51:44;;;;;;;23.27;5.90;;;6.60;84.10;;;;;;9171953;19;20492;-71
2024/02/02 02:54:53;;;;;;;28.50;5.72;;;6.60;84.20;;;;;;9172998;19;20018;-71
2024/02/02 02:58:00;;;;;;;27.58;5.05;;;6.60;84.20;;;;;;9172569;19;20011;-71
2024/02/02 03:01:06;;;;;;;28.17;6.38;;;6.60;84.10;;;;;;9173646;19;20017;-71
2024/02/02 03:04:14;;;;;;;36.42;6.25;;;6.60;84.30;;;;;;9171460;19;20487;-72
2024/02/02 03:07:19;;;;;;;26.08;5.55;;;6.60;84.20;;;;;;9172207;19;20018;-72
2024/02/02 03:10:30;;;;;;;25.33;5.75;;;6.70;84.30;;;;;;9173204;19;20762;-71
2024/02/02 03:13:35;;;;;;;23.55;5.03;;;6.70;84.20;;;;;;9171582;19;20010;-70
2024/02/02 03:16:43;;;;;;;27.10;5.72;;;6.70;84.20;;;;;;9170778;19;20026;-71
2024/02/02 03:19:48;;;;;;;29.42;7.18;;;6.70;84.20;;;;;;9181835;19;20480;-71
2024/02/02 03:22:57;;;;;;;30.13;6.88;;;6.70;84.20;;;;;;9177523;19;20480;-71
2024/02/02 03:26:06;;;;;;;29.48;6.53;;;6.70;84.30;;;;;;9182083;19;20014;-71
2024/02/02 03:29:13;;;;;;;23.88;6.10;;;6.70;84.30;;;;;;9177469;19;20019;-70
2024/02/02 03:32:19;;;;;;;29.55;6.43;;;6.70;84.30;;;;;;9182443;19;20575;-71
2024/02/02 03:35:27;;;;;;;22.30;5.85;;;6.80;84.20;;;;;;9181828;19;20023;-70
2024/02/02 03:38:33;;;;;;;19.48;6.25;;;6.70;84.20;;;;;;9181251;19;20477;-72
2024/02/02 03:41:44;;;;;;;31.70;8.32;;;6.80;84.50;;;;;;9180124;19;20018;-71
2024/02/02 03:44:49;;;;;;;33.95;8.43;;;6.80;84.30;;;;;;9179577;19;20022;-71
2024/02/02 03:47:59;;;;;;;28.67;7.93;;;6.80;84.40;;;;;;9180566;19;20014;-71
2024/02/02 03:51:05;;;;;;;32.78;7.45;;;6.80;84.30;;;;;;9181590;19;20019;-70
2024/02/02 03:54:13;;;;;;;24.17;7.72;;;6.80;84.40;;;;;;9178951;19;20575;-71
2024/02/02 03:57:21;;;;;;;34.55;8.38;;;6.90;84.70;;;;;;9179075;19;20018;-74
2024/02/02 04:00:29;;;;;;;22.27;7.18;;;6.80;84.40;;;;;;9179835;19;20019;-69
2024/02/02 04:03:35;;;;;;;25.05;7.55;;;6.80;84.20;;;;;;9178116;19;20524;-70
2024/02/02 04:06:42;;;;;;;26.65;7.47;;;6.80;84.20;;;;;;9179402;19;20014;-68
2024/02/02 04:09:48;;;;;;;28.08;7.85;;;6.90;84.60;;;;;;9175141;19;20048;-70
2024/02/02 04:12:58;;;;;;;26.08;7.38;;;6.90;84.30;;;;;;9179123;19;20017;-70
2024/02/02 04:16:04;;;;;;;24.98;7.15;;;6.90;84.30;;;;;;9178040;19;20018;-70
2024/02/02 04:19:15;;;;;;;29.95;7.80;;;6.90;84.30;;;;;;9176353;19;20026;-71
2024/02/02 04:22:21;;;;;;;39.08;8.52;;;6.90;84.60;;;;;;9173693;19;20014;-70
2024/02/02 04:25:29;;;;;;;26.58;6.60;;;6.90;84.40;;;;;;9178116;19;20388;-69
2024/02/02 04:28:37;;;;;;;28.08;7.50;;;6.90;84.40;;;;;;9175687;19;20374;-70
2024/02/02 04:31:44;;;;;;;25.40;6.85;;;6.90;84.30;;;;;;9178501;19;20586;-70
2024/02/02 04:34:50;;;;;;;31.60;7.35;;;7.00;84.40;;;;;;9177131;19;20082;-71
2024/02/02 04:37:58;;;;;;;20.67;5.95;;;6.90;84.30;;;;;;9179168;19;20014;-70
2024/02/02 04:41:04;;;;;;;31.88;6.65;;;6.90;84.30;;;;;;9176850;19;20056;-71
2024/02/02 04:44:15;;;;;;;31.17;6.40;;;7.00;84.50;;;;;;9176635;19;20787;-71
2024/02/02 04:47:22;;;;;;;24.00;7.30;;;6.90;84.40;;;;;;9179170;19;20021;-72
2024/02/02 04:50:30;;;;;;;37.22;7.55;;;6.90;84.50;;;;;;9176589;19;20384;-71
2024/02/02 04:53:35;;;;;;;28.35;7.57;;;6.90;84.30;;;;;;9178255;19;20496;-70
2024/02/02 04:56:43;;;;;;;20.38;7.25;;;6.90;84.30;;;;;;9177221;19;20010;-70
2024/02/02 04:59:51;;;;;;;27.58;6.57;;;7.00;84.60;;;;;;9178203;19;20048;-71
2024/02/02 05:02:58;;;;;;;32.05;7.43;;;7.00;84.30;;;;;;9176296;19;20029;-71
2024/02/02 05:06:04;;;;;;;31.63;7.72;;;6.90;84.20;;;;;;9177727;19;20015;-72
2024/02/02 05:09:12;;;;;;;38.83;8.07;;;6.90;84.40;;;;;;9174776;19;20022;-71
2024/02/02 05:12:17;;;;;;;33.53;8.15;;;6.90;84.30;;;;;;9175110;19;20497;-72
2024/02/02 05:15:28;;;;;;;28.33;7.07;;;7.00;84.20;;;;;;9175272;19;20030;-72
2024/02/02 05:18:33;;;;;;;27.90;6.85;;;6.90;84.20;;;;;;9177596;19;20017;-71
2024/02/02 05:21:41;;;;;;;27.05;6.88;;;6.90;84.20;;;;;;9170584;19;20037;-72
2024/02/02 05:24:48;;;;;;;30.90;6.63;;;6.90;84.20;;;;;;9176545;19;20014;-71
2024/02/02 05:27:55;;;;;;;37.17;8.27;;;6.90;84.20;;;;;;9174707;19;20022;-71
2024/02/02 05:31:03;;;;;;;27.85;8.95;;;6.90;84.30;;;;;;9175428;19;20014;-71
2024/02/02 05:34:11;;;;;;;35.72;7.32;;;6.90;84.40;;;;;;9177851;19;20373;-71
2024/02/02 05:37:17;;;;;;;31.33;6.85;;;6.90;84.30;;;;;;9176832;19;20014;-71
2024/02/02 05:40:25;;;;;;;26.80;7.43;;;6.80;84.20;;;;;;9172836;19;20025;-71
2024/02/02 05:43:33;;;;;;;32.22;7.57;;;6.90;84.30;;;;;;9177638;19;20017;-72
2024/02/02 05:46:43;;;;;;;23.52;7.18;;;6.80;84.60;;;;;;9175184;19;20029;-71
2024/02/02 05:49:49;;;;;;;32.83;8.48;;;6.80;84.20;;;;;;9173616;19;20025;-71
2024/02/02 05:52:57;;;;;;;36.58;7.90;;;6.80;84.20;;;;;;9176372;19;20025;-71
2024/02/02 05:56:02;;;;;;;25.15;7.82;;;6.80;84.30;;;;;;9176018;19;20022;-70
2024/02/02 05:59:10;;;;;;;25.25;7.78;;;6.80;84.30;;;;;;9175315;19;20019;-69
2024/02/02 06:02:18;;;;;;;28.77;7.20;;;6.80;84.20;;;;;;9172951;19;20017;-72
2024/02/02 06:05:25;;;;;;;23.45;6.95;;;6.80;84.20;;;;;;9175548;19;20469;-69
2024/02/02 06:08:31;;;;;;;29.10;7.47;;;6.80;84.10;;;;;;9172013;19;20469;-71
2024/02/02 06:11:39;;;;;;;27.23;7.55;;;6.80;84.20;;;;;;9172504;19;20025;-69
2024/02/02 06:14:44;;;;;;;27.23;7.50;;;6.80;84.10;;;;;;9173446;19;20030;-71
2024/02/02 06:17:55;;;;;;;25.13;7.75;;;6.80;84.10;;;;;;9174578;19;20018;-72
2024/02/02 06:21:00;;;;;;;24.60;7.05;;;6.80;84.20;;;;;;9174812;19;20014;-71
2024/02/02 06:24:10;;;;;;;25.02;7.30;;;6.80;84.10;;;;;;9169181;19;20018;-71
2024/02/02 06:27:15;;;;;;;22.52;7.03;;;6.80;84.10;;;;;;9174857;19;20461;-70
2024/02/02 06:30:23;;;;;;;33.15;7.15;;;6.80;84.10;;;;;;9174122;19;20361;-72
2024/02/02 06:33:31;;;;;;;31.85;7.70;;;6.80;84.00;;;;;;9173953;19;20768;-71
2024/02/02 06:36:39;;;;;;;26.17;7.00;;;6.80;84.10;;;;;;9174889;19;20022;-71
2024/02/02 06:39:47;;;;;;;35.80;7.57;;;6.70;83.90;;;;;;9176080;19;20025;-71
2024/02/02 06:42:55;;;;;;;24.85;7.80;;;6.70;84.10;;;;;;9174267;19;20029;-72
2024/02/02 06:46:00;;;;;;;34.58;7.15;;;6.70;84.10;;;;;;9174390;19;20018;-73
2024/02/02 06:49:10;;;;;;;32.05;7.85;;;6.80;84.10;;;;;;9173256;19;20376;-72
2024/02/02 06:52:16;;;;;;;36.42;7.25;;;6.70;84.00;;;;;;9184292;19;20010;-72
2024/02/02 06:55:24;;;;;;;26.77;6.45;;;6.70;84.10;;;;;;9192974;19;20031;-70
2024/02/02 06:58:43;;;;;;;27.73;6.28;;;6.70;84.10;;;;;;9193471;19;20018;-71
2024/02/02 07:01:51;;;;;;;28.23;6.38;;;6.70;84.00;;;;;;9189802;19;20826;-71
2024/02/02 07:04:59;;;;;;;32.53;6.53;;;6.60;84.00;;;;;;9192274;19;20017;-72
2024/02/02 07:08:09;;;;;;;27.65;7.45;;;6.60;84.10;;;;;;9190001;19;20029;-73
2024/02/02 07:11:45;;;;;;;39.20;6.90;;;6.60;84.00;;;;;;9187869;19;20018;-72
2024/02/02 07:14:55;;;;;;;26.77;6.72;;;6.60;84.00;;;;;;9190546;19;20017;-70
2024/02/02 07:18:00;;;;;;;30.45;5.97;;;6.60;84.30;;;;;;9190079;19;20069;-71
2024/02/02 07:21:14;;;;;;;19.13;5.93;;;6.50;84.20;;;;;;9190081;19;20015;-72
2024/02/02 07:24:20;;;;;;;17.52;5.05;;;6.60;84.30;;;;;;9186570;19;20176;-72
2024/02/02 07:27:48;;;;;;;26.55;5.78;;;6.60;84.30;;;;;;9191036;19;20015;-72
2024/02/02 07:30:55;;;;;;;27.23;6.22;;;6.50;84.00;;;;;;9186647;19;20022;-70
2024/02/02 07:34:08;;;;;;;26.60;6.10;;;6.50;84.10;;;;;;9191382;19;20026;-73
2024/02/02 07:37:33;;;;;;;28.20;5.28;;;6.50;84.10;;;;;;9188103;19;20033;-72
2024/02/02 07:41:06;;;;;;;30.83;5.60;;;6.50;84.20;;;;;;9190879;19;20369;-72
2024/02/02 07:44:12;;;;;;;29.23;5.57;;;6.50;84.10;;;;;;9188780;19;20134;-71
2024/02/02 07:47:19;;;;;;;31.02;5.45;;;6.60;84.60;;;;;;9186800;19;20017;-73
2024/02/02 07:50:25;;;;;;;30.88;5.95;;;6.50;84.30;;;;;;9187344;19;20015;-71
2024/02/02 07:53:36;;;;;;;32.50;5.80;;;6.50;84.30;;;;;;9188563;19;20018;-72
2024/02/02 07:56:41;;;;;;;28.52;7.60;;;6.70;84.60;;;;;;9189302;19;20538;-72
2024/02/02 07:59:50;;;;;;;15.35;5.30;;;6.50;84.40;;;;;;9190848;19;20018;-71
2024/02/02 08:02:55;;;;;;;26.98;5.45;;;6.50;84.40;;;;;;9183434;19;20025;-73
2024/02/02 08:06:03;;;;;;;24.67;6.65;;;6.60;84.50;;;;;;9181226;19;20021;-71
2024/02/02 08:09:11;;;;;;;26.45;6.05;;;6.60;84.40;;;;;;9175016;19;20488;-70
2024/02/02 08:12:19;;;;;;;17.73;5.78;;;6.60;84.40;;;;;;9173122;19;20018;-70
2024/02/02 08:15:25;;;;;;;17.38;5.70;;;6.60;84.50;;;;;;9179365;19;20026;-71
2024/02/02 08:18:32;;;;;;;26.25;6.85;;;6.60;84.50;;;;;;9179340;19;20025;-70
2024/02/02 08:21:38;;;;;;;24.95;6.10;;;6.70;84.50;;;;;;9174233;19;20530;-71
2024/02/02 08:24:48;;;;;;;31.23;6.90;;;6.70;84.50;;;;;;9177796;19;20018;-72
2024/02/02 08:27:54;;;;;;;32.22;7.32;;;6.70;84.50;;;;;;9178320;19;20034;-71
2024/02/02 08:31:02;;;;;;;28.52;6.82;;;6.80;84.60;;;;;;9178169;19;20464;-70
2024/02/02 08:34:07;;;;;;;33.45;7.07;;;6.90;84.70;;;;;;9175914;19;20111;-72
2024/02/02 08:37:15;;;;;;;26.38;7.55;;;6.90;84.70;;;;;;9179762;19;20018;-71
2024/02/02 08:40:32;;;;;;;32.58;6.63;;;6.90;84.70;;;;;;9179008;19;20014;-71
2024/02/02 08:43:42;;;;;;;35.13;8.20;;;6.90;84.70;;;;;;9179531;19;20023;-71
2024/02/02 08:46:49;;;;;;;42.92;7.97;;;7.00;84.70;;;;;;9180124;19;20071;-72
2024/02/02 08:50:04;;;;;;;33.58;8.57;;;7.10;84.80;;;;;;9177458;19;20010;-71
2024/02/02 08:53:14;;;;;;;42.95;9.27;;;7.00;84.70;;;;;;9178065;19;20019;-71
2024/02/02 08:56:24;;;;;;;37.80;8.35;;;7.10;84.70;;;;;;9177812;19;20007;-72
2024/02/02 08:59:39;;;;;;;41.55;9.93;;;7.10;84.90;;;;;;9175828;19;20022;-71
2024/02/02 09:02:55;;;;;;;37.40;8.68;;;7.20;84.80;;;;;;9177160;19;20022;-71
2024/02/02 09:06:07;;;;;;;35.15;8.93;;;7.20;85.00;;;;;;9178652;19;20022;-70
2024/02/02 09:09:17;;;;;;;37.42;8.65;;;7.30;84.90;;;;;;9177436;19;20019;-72
2024/02/02 09:12:32;;;;;;;41.50;9.13;;;7.30;84.90;;;;;;9176261;19;20014;-72
2024/02/02 09:15:40;;;;;;;36.08;9.90;;;7.30;84.80;;;;;;9175974;19;20015;-72
2024/02/02 09:18:47;;;;;;;33.72;9.27;;;7.40;84.90;;;;;;9178700;19;20014;-71
2024/02/02 09:21:56;;;;;;;33.03;9.00;;;7.40;85.00;;;;;;9170852;19;20022;-72
2024/02/02 09:25:02;;;;;;;32.55;8.93;;;7.50;85.10;;;;;;9176457;19;20019;-71
2024/02/02 09:28:41;;;;;;;32.38;9.40;;;7.40;84.90;;;;;;9176929;19;20025;-72
2024/02/02 09:31:47;;;;;;;36.88;10.82;;;7.50;84.90;;;;;;9175590;19;20493;-70
2024/02/02 09:34:54;;;;;;;28.90;8.95;;;7.60;85.00;;;;;;9176075;19;20029;-72
2024/02/02 09:38:01;;;;;;;34.28;9.00;;;7.60;84.90;;;;;;9177919;19;20026;-70
2024/02/02 09:41:37;;;;;;;36.80;9.45;;;7.60;85.10;;;;;;9177282;19;20019;-71
2024/02/02 09:44:56;;;;;;;37.40;9.30;;;7.70;85.00;;;;;;9177690;19;20018;-71
2024/02/02 09:48:12;;;;;;;32.95;9.05;;;7.70;85.00;;;;;;9175048;19;20379;-72
2024/02/02 09:51:29;;;;;;;30.33;9.32;;;7.70;84.90;;;;;;9174456;19;20370;-72
2024/02/02 09:54:42;;;;;;;34.83;9.00;;;7.80;85.00;;;;;;9174493;19;20364;-71
2024/02/02 09:57:56;;;;;;;26.25;8.50;;;7.80;84.90;;;;;;9175606;19;20018;-72
2024/02/02 10:01:19;;;;;;;30.88;9.02;;;7.90;85.10;;;;;;9175389;19;20400;-71
2024/02/02 10:04:38;;;;;;;42.08;8.50;;;7.90;85.10;;;;;;9176929;19;20013;-71
2024/02/02 10:07:57;;;;;;;36.40;9.32;;;7.90;84.90;;;;;;9173248;19;20019;-71
2024/02/02 10:11:24;;;;;;;38.13;10.75;;;7.90;84.90;;;;;;9175751;19;20022;-70
2024/02/02 10:14:57;;;;;;;33.28;10.77;;;8.00;85.10;;;;;;9175447;19;20010;-71
2024/02/02 10:18:26;;;;;;;28.60;9.77;;;8.00;85.00;;;;;;9177602;19;20503;-72
2024/02/02 10:21:47;;;;;;;29.90;10.70;;;8.10;85.20;;;;;;9170537;19;20010;-72
2024/02/02 10:25:05;;;;;;;37.97;11.68;;;8.30;85.50;;;;;;9174798;19;20014;-72
2024/02/02 10:28:24;;;;;;;34.15;11.07;;;8.20;85.10;;;;;;9171792;19;20354;-71
2024/02/02 10:31:50;;;;;;;33.85;9.65;;;8.30;85.80;;;;;;9172835;19;20041;-71
2024/02/02 10:35:14;;;;;;;34.95;11.05;;;8.30;85.30;;;;;;9174192;19;20025;-71
2024/02/02 10:38:33;;;;;;;29.05;9.13;;;8.40;85.10;;;;;;9173087;19;20082;-72
2024/02/02 10:41:46;;;;;;;34.50;10.75;;;8.40;85.10;;;;;;9173627;19;20089;-71
2024/02/02 10:45:10;;;;;;;38.88;10.63;;;8.50;85.20;;;;;;9173940;19;20022;-71
2024/02/02 10:48:35;;;;;;;24.25;9.95;;;8.60;85.20;;;;;;9158496;19;20074;-71
2024/02/02 10:51:59;;;;;;;30.58;8.60;;;8.60;85.30;;;;;;9173644;19;20023;-71
2024/02/02 10:55:20;;;;;;;31.73;9.50;;;8.60;85.10;;;;;;9170850;19;20010;-71
2024/02/02 10:58:46;;;;;;;38.35;9.73;;;8.70;85.10;;;;;;9167501;19;20011;-71
2024/02/02 11:01:56;;;;;;;39.03;9.27;;;8.70;85.00;;;;;;9172561;19;20010;-71
2024/02/02 11:05:15;;;;;;;34.10;8.57;;;8.70;85.20;;;;;;9172764;19;20044;-71
2024/02/02 11:08:27;;;;;;;36.75;10.18;;;8.80;85.00;;;;;;9170880;19;20361;-71
2024/02/02 11:11:41;;;;;;;33.38;9.13;;;8.90;85.20;;;;;;9172215;19;20014;-72
2024/02/02 11:14:52;;;;;;;30.30;9.13;;;8.90;85.20;;;;;;9167510;19;20011;-69
2024/02/02 11:18:13;;;;;;;46.70;8.90;;;9.00;85.10;;;;;;9156914;19;20022;-67
2024/02/02 11:21:38;;;;;;;35.85;9.10;;;9.00;85.20;;;;;;9164037;19;20711;-67
2024/02/02 11:24:59;;;;;;;32.55;8.85;;;9.00;85.20;;;;;;9154385;19;20023;-69
2024/02/02 11:28:11;;;;;;;37.92;11.07;;;9.10;85.20;;;;;;9173217;19;20018;-68
2024/02/02 11:31:29;;;;;;;32.25;9.35;;;9.10;85.10;;;;;;9172032;19;20026;-70
2024/02/02 11:34:49;;;;;;;32.83;8.77;;;9.10;85.20;;;;;;9172644;19;20043;-69
2024/02/02 11:38:06;;;;;;;31.85;8.93;;;9.10;85.10;;;;;;9172596;19;20015;-70
2024/02/02 11:41:18;;;;;;;34.97;10.55;;;9.20;85.20;;;;;;9182188;19;20667;-70
2024/02/02 11:44:28;;;;;;;37.58;9.57;;;9.20;85.10;;;;;;9179912;19;20019;-70
2024/02/02 11:47:38;;;;;;;37.35;10.25;;;9.20;85.10;;;;;;9176773;19;20374;-70
2024/02/02 11:50:47;;;;;;;32.53;10.05;;;9.20;85.20;;;;;;9178882;19;20018;-70
2024/02/02 11:53:59;;;;;;;33.42;10.40;;;9.30;85.20;;;;;;9178743;19;20022;-69
2024/02/02 11:57:14;;;;;;;39.83;10.10;;;9.30;85.10;;;;;;9181283;19;20050;-69
2024/02/02 12:00:32;;;;;;;36.38;10.27;;;9.30;85.20;;;;;;9179798;19;20018;-69
2024/02/02 12:03:49;;;;;;;35.25;9.88;;;9.30;85.10;;;;;;9179944;19;20021;-69
2024/02/02 12:07:04;;;;;;;35.17;10.25;;;9.30;85.00;;;;;;9180575;19;20018;-70
2024/02/02 12:10:18;;;;;;;34.85;9.48;;;9.40;85.00;;;;;;9181038;19;20015;-69
2024/02/02 12:13:32;;;;;;;110.03;13.55;;;9.30;85.00;;;;;;9180049;19;20066;-76
2024/02/02 12:16:39;;;;;;;36.78;9.80;;;9.30;85.10;;;;;;9179138;19;20026;-72
2024/02/02 12:19:46;;;;;;;31.17;9.65;;;9.30;85.20;;;;;;9178776;19;20041;-72
2024/02/02 12:22:54;;;;;;;37.90;10.75;;;9.30;85.40;;;;;;9175550;19;20022;-71
2024/02/02 12:26:00;;;;;;;35.75;10.52;;;9.30;85.20;;;;;;9180922;19;20015;-71
2024/02/02 12:29:11;;;;;;;39.20;10.35;;;9.30;85.20;;;;;;9179079;19;20372;-63
2024/02/02 12:32:16;;;;;;;37.08;10.52;;;9.40;85.40;;;;;;9179854;19;20014;-77
2024/02/02 12:35:25;;;;;;;38.00;12.13;;;9.40;85.50;;;;;;9199351;19;20045;-73
2024/02/02 12:38:31;;;;;;;30.45;9.77;;;9.40;85.40;;;;;;9201041;19;20011;-71
2024/02/02 12:41:39;;;;;;;46.15;11.40;;;9.40;85.40;;;;;;9200842;19;20015;-70
2024/02/02 12:44:47;;;;;;;42.97;11.05;;;9.40;85.40;;;;;;9200244;19;20110;-73
2024/02/02 12:47:57;;;;;;;44.47;10.38;;;9.50;85.50;;;;;;9198911;19;20014;-72
2024/02/02 12:51:05;;;;;;;38.08;9.45;;;9.50;85.50;;;;;;9197512;19;20051;-73
2024/02/02 12:54:13;;;;;;;38.60;10.25;;;9.50;85.40;;;;;;9197528;19;20034;-72
2024/02/02 12:57:19;;;;;;;37.15;10.55;;;9.60;85.70;;;;;;9199371;19;20014;-73
2024/02/02 13:00:29;;;;;;;39.55;10.32;;;9.60;85.40;;;;;;9195979;19;20015;-73
2024/02/02 13:03:36;;;;;;;36.42;9.57;;;9.60;85.50;;;;;;9196669;19;20014;-72
2024/02/02 13:06:51;;;;;;;39.13;9.85;;;9.60;85.40;;;;;;9198459;19;20015;-72
2024/02/02 13:09:57;;;;;;;22.77;9.15;;;9.70;85.40;;;;;;9193506;19;20493;-74
2024/02/02 13:13:14;;;;;;;30.70;10.57;;;9.70;85.20;;;;;;9196054;19;20014;-72
2024/02/02 13:16:29;;;;;;;;;;;9.70;85.50;;;;;;9196591;19;20018;-71
2024/02/02 13:19:42;;;;;;;35.65;9.82;;;9.70;85.10;;;;;;9199893;19;19937;-73
2024/02/02 13:22:49;;;;;;;40.15;10.95;;;9.70;85.30;;;;;;9195163;19;20014;-74
2024/02/02 13:26:00;;;;;;;37.65;10.35;;;9.70;85.20;;;;;;9189043;19;20014;-73
2024/02/02 13:29:07;;;;;;;32.65;9.73;;;9.70;85.30;;;;;;9196842;19;20014;-72
2024/02/02 13:32:21;;;;;;;39.40;10.52;;;9.70;85.30;;;;;;9193197;19;20022;-71
2024/02/02 13:35:31;;;;;;;42.72;11.15;;;9.70;85.30;;;;;;9196819;19;20023;-72
2024/02/02 13:38:40;;;;;;;37.90;10.73;;;9.70;85.20;;;;;;9197305;19;20029;-72
2024/02/02 13:41:47;;;;;;;31.40;10.27;;;9.70;85.20;;;;;;9196924;19;20022;-71
2024/02/02 13:44:55;;;;;;;36.38;11.55;;;9.70;85.30;;;;;;9196598;19;20025;-73
2024/02/02 13:48:04;;;;;;;41.13;12.10;;;9.70;85.90;;;;;;9195053;19;20378;-72
2024/02/02 13:51:11;;;;;;;41.72;11.68;;;9.70;85.20;;;;;;9196366;19;20017;-73
2024/02/02 13:54:22;;;;;;;35.15;11.18;;;9.70;85.10;;;;;;9199413;19;20013;-72
2024/02/02 13:57:30;;;;;;;39.15;12.57;;;9.70;85.20;;;;;;9201288;19;20013;-73
2024/02/02 14:00:36;;;;;;;32.65;12.77;;;9.60;85.20;;;;;;9199026;19;20467;-74
2024/02/02 14:03:47;;;;;;;37.38;12.27;;;9.70;85.30;;;;;;9199243;19;20022;-73
2024/02/02 14:06:53;;;;;;;34.53;10.98;;;9.60;85.30;;;;;;9198903;19;20022;-73
2024/02/02 14:10:04;;;;;;;37.42;12.40;;;9.60;85.30;;;;;;9201350;19;20046;-72
2024/02/02 14:13:18;;;;;;;48.75;13.07;;;9.60;85.30;;;;;;9194350;19;20048;-71
2024/02/02 14:16:30;;;;;;;40.25;12.45;;;9.60;85.30;;;;;;9191844;19;20022;-70
2024/02/02 14:19:38;;;;;;;41.70;11.93;;;9.60;86.00;;;;;;9192330;19;20035;-71
2024/02/02 14:22:46;;;;;;;49.97;12.00;;;9.60;85.60;;;;;;9185038;19;20018;-73
2024/02/02 14:25:52;;;;;;;46.53;12.93;;;9.60;85.30;;;;;;9188779;19;20018;-70
2024/02/02 14:29:03;;;;;;;41.53;12.10;;;9.60;85.40;;;;;;9193117;19;20014;-72
2024/02/02 14:32:10;;;;;;;46.80;12.80;;;9.60;85.60;;;;;;9188236;19;20014;-72
2024/02/02 14:35:21;;;;;;;47.80;13.18;;;9.60;85.50;;;;;;9196320;19;20015;-71
2024/02/02 14:38:27;;;;;;;49.28;13.13;;;9.60;85.80;;;;;;9194233;19;20014;-72
2024/02/02 14:41:35;;;;;;;40.33;12.20;;;9.60;85.60;;;;;;9193904;19;20033;-71
2024/02/02 14:44:40;;;;;;;42.28;11.52;;;9.70;85.70;;;;;;9194544;19;20006;-72
2024/02/02 14:47:48;;;;;;;38.10;12.55;;;9.70;85.60;;;;;;9194141;19;20448;-70
2024/02/02 14:50:56;;;;;;;44.80;12.13;;;9.70;85.70;;;;;;9185995;19;20018;-71
2024/02/02 14:54:06;;;;;;;51.70;12.82;;;9.70;85.70;;;;;;9194192;19;20022;-72
2024/02/02 14:57:13;;;;;;;41.38;12.98;;;9.70;86.00;;;;;;9192841;19;20021;-73
2024/02/02 15:00:30;;;;;;;38.15;11.43;;;9.70;85.90;;;;;;9192542;19;20015;-71
2024/02/02 15:03:36;;;;;;;31.27;10.68;;;9.70;85.80;;;;;;9193094;19;20074;-72
2024/02/02 15:06:46;;;;;;;29.40;10.15;;;9.70;85.80;;;;;;9194420;19;20002;-72
2024/02/02 15:09:52;;;;;;;39.95;12.63;;;9.70;86.40;;;;;;9196087;19;20429;-73
2024/02/02 15:13:00;;;;;;;43.00;13.10;;;9.70;85.80;;;;;;9199903;19;20014;-72
2024/02/02 15:16:09;;;;;;;39.47;12.45;;;9.70;85.90;;;;;;9200515;19;20015;-72
2024/02/02 15:19:17;;;;;;;43.67;11.35;;;9.80;86.00;;;;;;9205196;19;20114;-73
2024/02/02 15:22:25;;;;;;;34.30;11.52;;;9.70;86.00;;;;;;9201117;19;20010;-72
2024/02/02 15:25:32;;;;;;;40.88;13.27;;;9.80;85.90;;;;;;9203004;19;20014;-73
2024/02/02 15:28:40;;;;;;;44.08;11.98;;;9.80;86.10;;;;;;9196026;19;20044;-72
2024/02/02 15:31:50;;;;;;;51.20;11.60;;;9.80;86.10;;;;;;9199076;19;20104;-73
2024/02/02 15:34:56;;;;;;;38.88;12.32;;;9.80;86.00;;;;;;9197453;19;20082;-70
2024/02/02 15:38:08;;;;;;;31.10;11.05;;;9.80;86.00;;;;;;9194983;19;20014;-71
2024/02/02 15:41:34;;;;;;;44.13;11.43;;;9.80;86.10;;;;;;9191745;19;20461;-70
2024/02/02 15:44:42;;;;;;;33.88;9.90;;;9.80;86.00;;;;;;9195056;19;20022;-71
2024/02/02 15:47:47;;;;;;;32.65;10.25;;;9.80;86.10;;;;;;9204160;19;20017;-73
2024/02/02 15:50:58;;;;;;;37.65;11.25;;;9.80;86.00;;;;;;9200488;19;20015;-74
2024/02/02 15:54:08;;;;;;;35.95;11.05;;;9.90;86.40;;;;;;9201051;19;20018;-72
2024/02/02 15:57:17;;;;;;;40.80;11.68;;;9.90;86.40;;;;;;9205516;19;20017;-74
2024/02/02 16:00:23;;;;;;;35.83;11.02;;;9.90;86.20;;;;;;9201025;19;20017;-71
2024/02/02 16:03:30;;;;;;;46.42;11.45;;;9.90;86.20;;;;;;9198280;19;20018;-72
2024/02/02 16:06:36;;;;;;;34.70;9.35;;;9.90;86.00;;;;;;9194932;19;20010;-72
2024/02/02 16:09:55;;;;;;;25.98;9.23;;;9.90;86.20;;;;;;9192299;19;20014;-71
2024/02/02 16:13:01;;;;;;;30.95;10.20;;;9.90;86.10;;;;;;9197730;19;20042;-70
2024/02/02 16:16:09;;;;;;;28.33;9.68;;;9.90;86.20;;;;;;9201427;19;20368;-72
2024/02/02 16:19:15;;;;;;;29.25;8.85;;;9.90;86.30;;;;;;9203156;19;20042;-72
2024/02/02 16:22:23;;;;;;;35.42;10.55;;;9.90;86.20;;;;;;9194307;19;20011;-71
2024/02/02 16:25:31;;;;;;;30.58;9.48;;;9.90;86.20;;;;;;9202576;19;20014;-71
2024/02/02 16:28:39;;;;;;;21.42;9.50;;;9.90;86.20;;;;;;9202873;19;20022;-72